Time;durP1;ratioP1;P1;durP2;ratioP2;P2;SDS_P1;SDS_P2;PMS_P1;PMS_P2;Temp;Humidity;BMP_temperature;BMP_pressure;BME280_temperature;BME280_humidity;BME280_pressure;Samples;Min_cycle;Max_cycle;Signal;HPM_P1;HPM_P2
2022/05/23 00:00:18;;;;;;;6.40;1.20;;;13.10;99.90;;;;;;5131098;27;20051;-63
2022/05/23 00:02:45;;;;;;;4.28;1.27;;;13.00;99.90;;;;;;5116194;27;20396;-58
2022/05/23 00:05:11;;;;;;;3.50;1.35;;;13.10;99.90;;;;;;5113884;27;20560;-69
2022/05/23 00:07:43;;;;;;;2.90;1.00;;;13.10;99.90;;;;;;5120870;27;20091;-59
2022/05/23 00:10:11;;;;;;;2.60;1.02;;;13.10;99.90;;;;;;5108963;27;20053;-68
2022/05/23 00:12:37;;;;;;;4.18;1.40;;;13.10;99.90;;;;;;5110066;27;20457;-66
2022/05/23 00:15:05;;;;;;;3.83;1.20;;;13.10;99.90;;;;;;5108492;27;20118;-69
2022/05/23 00:17:31;;;;;;;2.45;1.85;;;13.10;99.90;;;;;;5110638;27;20493;-67
2022/05/23 00:19:57;;;;;;;4.95;1.10;;;13.10;99.90;;;;;;5091789;27;20039;-64
2022/05/23 00:22:23;;;;;;;4.78;1.15;;;13.10;99.90;;;;;;5109769;27;20122;-68
2022/05/23 00:24:49;;;;;;;8.18;2.30;;;13.00;99.90;;;;;;5109984;27;20138;-60
2022/05/23 00:27:18;;;;;;;5.55;1.40;;;13.00;99.90;;;;;;5109212;27;20046;-67
2022/05/23 00:29:44;;;;;;;;;;;13.00;99.90;;;;;;5111563;27;20094;-59
2022/05/23 00:37:39;;;;;;;5.97;1.50;;;12.90;99.90;;;;;;5108825;27;20059;-65
2022/05/23 00:40:06;;;;;;;8.45;1.70;;;12.90;99.90;;;;;;5128036;27;20050;-67
2022/05/23 00:45:19;;;;;;;4.20;1.20;;;12.80;99.90;;;;;;5107832;27;20052;-70
2022/05/23 00:47:46;;;;;;;7.03;1.90;;;12.80;99.90;;;;;;5128507;27;20096;-65
2022/05/23 00:50:16;;;;;;;5.68;1.65;;;12.80;99.90;;;;;;5141684;27;20061;-65
2022/05/23 00:52:54;;;;;;;5.55;1.45;;;12.80;99.90;;;;;;5112474;27;20061;-64
2022/05/23 00:55:26;;;;;;;3.33;1.30;;;12.70;99.90;;;;;;5129984;27;20086;-62
2022/05/23 00:57:58;;;;;;;7.63;1.90;;;12.70;99.90;;;;;;5128886;27;20047;-68
2022/05/23 01:00:24;;;;;;;4.00;1.48;;;12.60;99.90;;;;;;5116300;28;20055;-64
2022/05/23 01:02:57;;;;;;;6.43;1.55;;;12.60;99.90;;;;;;5108742;28;20397;-61
2022/05/23 01:05:24;;;;;;;4.78;1.70;;;12.60;99.90;;;;;;5109535;28;20085;-65
2022/05/23 01:07:50;;;;;;;4.45;1.40;;;12.60;99.90;;;;;;5127224;28;20513;-60
2022/05/23 01:10:16;;;;;;;3.80;1.20;;;12.60;99.90;;;;;;5127847;27;20054;-65
2022/05/23 01:12:42;;;;;;;6.43;1.38;;;12.60;99.90;;;;;;5127948;28;20103;-59
2022/05/23 01:15:28;;;;;;;5.38;1.70;;;12.60;99.90;;;;;;5108421;28;20043;-67
2022/05/23 01:17:54;;;;;;;5.00;1.33;;;12.60;99.90;;;;;;5128393;28;20122;-65
2022/05/23 01:20:21;;;;;;;5.57;1.52;;;12.60;99.90;;;;;;5113474;27;20075;-64
2022/05/23 01:22:51;;;;;;;8.05;1.65;;;12.70;99.90;;;;;;5113291;27;20043;-68
2022/05/23 01:25:35;;;;;;;5.65;1.48;;;12.70;99.90;;;;;;5112296;27;20046;-60
2022/05/23 01:28:02;;;;;;;6.47;1.88;;;12.70;99.90;;;;;;5110610;27;20043;-65
2022/05/23 01:30:29;;;;;;;2.67;1.60;;;12.70;99.90;;;;;;5132657;27;20129;-66
2022/05/23 01:32:54;;;;;;;4.10;1.52;;;12.70;99.90;;;;;;5109331;27;20123;-67
2022/05/23 01:35:21;;;;;;;10.10;1.77;;;12.70;99.90;;;;;;5131911;27;20137;-67
2022/05/23 01:37:47;;;;;;;4.57;1.67;;;12.70;99.90;;;;;;5111985;27;20051;-64
2022/05/23 01:40:16;;;;;;;6.05;1.27;;;12.70;99.90;;;;;;5126158;27;20038;-65
2022/05/23 01:42:42;;;;;;;3.58;1.52;;;12.60;99.90;;;;;;5116104;27;20046;-64
2022/05/23 01:45:09;;;;;;;4.18;1.48;;;12.60;99.90;;;;;;5115549;27;20043;-70
2022/05/23 01:47:35;;;;;;;3.95;1.23;;;12.60;99.90;;;;;;5133535;27;20043;-65
2022/05/23 01:50:01;;;;;;;7.72;1.77;;;12.60;99.90;;;;;;5128476;27;20040;-61
2022/05/23 01:52:27;;;;;;;8.68;1.52;;;12.60;99.90;;;;;;5151386;27;20061;-71
2022/05/23 01:54:53;;;;;;;4.70;1.30;;;12.60;99.90;;;;;;5132303;27;20047;-60
2022/05/23 01:57:19;;;;;;;6.68;1.50;;;12.60;99.90;;;;;;5152439;27;21042;-60
2022/05/23 02:02:29;;;;;;;5.93;1.23;;;12.60;99.90;;;;;;5130140;27;20065;-61
2022/05/23 02:04:55;;;;;;;5.88;1.63;;;12.60;99.90;;;;;;5133502;27;20764;-62
2022/05/23 02:07:26;;;;;;;5.63;1.52;;;12.70;99.90;;;;;;5131640;27;20095;-60
2022/05/23 02:09:52;;;;;;;4.20;1.20;;;12.70;99.90;;;;;;5116166;27;20050;-64
2022/05/23 02:12:18;;;;;;;6.47;1.30;;;12.70;99.90;;;;;;5131179;27;20042;-65
2022/05/23 02:14:45;;;;;;;5.13;1.50;;;12.70;99.90;;;;;;5116066;27;20313;-72
2022/05/23 02:17:12;;;;;;;3.13;1.45;;;12.70;99.90;;;;;;5132677;27;20121;-58
2022/05/23 02:19:38;;;;;;;4.03;1.13;;;12.80;99.90;;;;;;5132010;27;20042;-61
2022/05/23 02:22:04;;;;;;;7.80;1.80;;;12.80;99.90;;;;;;5111023;27;20055;-69
2022/05/23 02:24:30;;;;;;;5.15;1.65;;;12.80;99.90;;;;;;5110799;27;20051;-66
2022/05/23 02:26:56;;;;;;;4.25;1.58;;;12.80;99.90;;;;;;5112377;27;20410;-70
2022/05/23 02:29:21;;;;;;;2.67;1.38;;;12.80;99.90;;;;;;5094010;27;20039;-61
2022/05/23 02:31:48;;;;;;;3.78;1.27;;;12.90;99.90;;;;;;5095159;27;20050;-64
2022/05/23 02:34:15;;;;;;;3.90;1.30;;;12.80;99.90;;;;;;5109423;27;20079;-68
2022/05/23 02:36:42;;;;;;;7.35;1.80;;;12.90;99.90;;;;;;5111608;27;20051;-67
2022/05/23 02:39:08;;;;;;;5.07;1.45;;;12.90;99.90;;;;;;5111440;27;20050;-71
2022/05/23 02:41:34;;;;;;;4.25;1.48;;;12.90;99.90;;;;;;5110497;27;20127;-61
2022/05/23 02:44:01;;;;;;;4.85;1.58;;;12.90;99.90;;;;;;5113158;27;20051;-67
2022/05/23 02:46:28;;;;;;;3.42;1.42;;;12.90;99.90;;;;;;5110556;27;20039;-71
2022/05/23 02:48:55;;;;;;;7.38;1.48;;;12.90;99.90;;;;;;5112093;27;20473;-65
2022/05/23 02:51:22;;;;;;;7.03;1.52;;;12.80;99.90;;;;;;5110353;27;20055;-62
2022/05/23 02:53:48;;;;;;;5.90;1.70;;;12.80;99.90;;;;;;5099058;27;20047;-65
2022/05/23 02:56:15;;;;;;;6.55;1.63;;;12.80;99.90;;;;;;5132357;27;20047;-64
2022/05/23 02:58:41;;;;;;;6.90;1.50;;;12.70;99.90;;;;;;5130973;27;20507;-67
2022/05/23 03:01:06;;;;;;;7.38;1.60;;;12.70;99.90;;;;;;5131922;27;20043;-65
2022/05/23 03:03:33;;;;;;;5.00;1.58;;;12.60;99.90;;;;;;5130688;27;20035;-63
2022/05/23 03:05:59;;;;;;;5.57;1.50;;;12.60;99.90;;;;;;5096005;27;20122;-63
2022/05/23 03:08:27;;;;;;;3.15;1.35;;;12.60;99.90;;;;;;5110386;27;20053;-61
2022/05/23 03:10:57;;;;;;;6.30;1.73;;;12.60;99.90;;;;;;5111390;27;20062;-61
2022/05/23 03:13:23;;;;;;;4.32;1.38;;;12.60;99.90;;;;;;5128477;27;20040;-61
2022/05/23 03:15:49;;;;;;;4.38;1.67;;;12.60;99.90;;;;;;5122897;27;21005;-66
2022/05/23 03:18:15;;;;;;;5.95;1.70;;;12.60;99.90;;;;;;5132034;27;20050;-63
2022/05/23 03:20:41;;;;;;;3.35;1.38;;;12.60;99.90;;;;;;5095696;27;20046;-67
2022/05/23 03:28:37;;;;;;;2.72;1.30;;;12.60;99.90;;;;;;5110554;27;20051;-65
2022/05/23 03:31:04;;;;;;;6.43;1.55;;;12.70;99.90;;;;;;5111345;27;20156;-69
2022/05/23 03:33:30;;;;;;;11.18;1.55;;;12.70;99.90;;;;;;5092785;27;20046;-64
2022/05/23 03:35:56;;;;;;;6.60;1.65;;;12.70;99.90;;;;;;5117285;27;20497;-62
2022/05/23 03:38:22;;;;;;;5.28;1.50;;;12.80;99.90;;;;;;5130238;27;20045;-62
2022/05/23 03:40:48;;;;;;;3.95;1.70;;;12.80;99.90;;;;;;5125141;27;20085;-63
2022/05/23 03:43:15;;;;;;;5.18;1.55;;;12.90;99.90;;;;;;5109374;27;20043;-61
2022/05/23 03:45:41;;;;;;;3.42;1.30;;;12.90;99.90;;;;;;5110621;27;20050;-64
2022/05/23 03:48:08;;;;;;;5.30;1.55;;;13.00;99.90;;;;;;5110486;27;20541;-62
2022/05/23 03:50:34;;;;;;;6.20;1.60;;;13.10;99.90;;;;;;5116841;27;20054;-64
2022/05/23 03:53:02;;;;;;;6.45;1.80;;;13.10;99.90;;;;;;5131055;27;20138;-68
2022/05/23 03:55:29;;;;;;;8.52;1.88;;;13.20;99.90;;;;;;5130035;27;20077;-65
2022/05/23 03:57:55;;;;;;;5.60;1.63;;;13.20;99.90;;;;;;5130821;27;20046;-59
2022/05/23 04:00:23;;;;;;;6.82;1.60;;;13.20;99.90;;;;;;5146818;27;20068;-67
2022/05/23 04:02:50;;;;;;;5.63;1.63;;;13.30;99.90;;;;;;5130460;27;20492;-63
2022/05/23 04:05:17;;;;;;;4.55;1.42;;;13.30;99.90;;;;;;5130223;27;20644;-65
2022/05/23 04:07:44;;;;;;;4.43;1.42;;;13.40;99.90;;;;;;5129783;27;20134;-66
2022/05/23 04:10:16;;;;;;;4.05;1.50;;;13.30;99.90;;;;;;5114173;27;20055;-63
2022/05/23 04:12:42;;;;;;;5.88;1.75;;;13.40;99.90;;;;;;5111185;27;20050;-62
2022/05/23 04:15:09;;;;;;;7.68;2.53;;;13.40;99.90;;;;;;5131015;27;20126;-63
2022/05/23 04:17:35;;;;;;;6.93;1.73;;;13.40;99.90;;;;;;5111680;27;20121;-71
2022/05/23 04:20:01;;;;;;;3.00;1.52;;;13.50;99.90;;;;;;5131095;27;20121;-60
2022/05/23 04:22:26;;;;;;;6.15;1.50;;;13.50;99.90;;;;;;5099740;28;20430;-60
2022/05/23 04:24:52;;;;;;;4.55;1.60;;;13.50;99.90;;;;;;5126679;27;20118;-62
2022/05/23 04:27:18;;;;;;;4.50;1.77;;;13.50;99.90;;;;;;5093338;27;20035;-60
2022/05/23 04:29:44;;;;;;;6.22;1.70;;;13.50;99.90;;;;;;5108313;28;20068;-66
2022/05/23 04:35:14;;;;;;;5.75;2.05;;;13.50;99.90;;;;;;5087410;27;20265;-67
2022/05/23 04:37:45;;;;;;;7.40;1.92;;;13.50;99.90;;;;;;5112718;27;20595;-66
2022/05/23 04:40:14;;;;;;;7.75;1.95;;;13.50;99.90;;;;;;5130614;27;20473;-59
2022/05/23 04:42:40;;;;;;;3.78;2.22;;;13.50;99.90;;;;;;5109794;27;20573;-67
2022/05/23 04:45:06;;;;;;;7.95;2.25;;;13.50;99.90;;;;;;5130502;27;20084;-59
2022/05/23 04:50:16;;;;;;;8.40;2.33;;;13.50;99.90;;;;;;5130260;27;20050;-66
2022/05/23 04:52:42;;;;;;;7.88;2.20;;;13.50;99.90;;;;;;5126993;27;20047;-65
2022/05/23 04:55:09;;;;;;;9.02;2.10;;;13.50;99.90;;;;;;5129683;27;20051;-68
2022/05/23 04:57:35;;;;;;;7.80;2.35;;;13.50;99.90;;;;;;5130232;27;20051;-58
2022/05/23 05:00:02;;;;;;;7.72;1.92;;;13.60;99.90;;;;;;5111523;27;20045;-62
2022/05/23 05:02:28;;;;;;;9.90;2.40;;;13.70;99.90;;;;;;5129394;27;20042;-65
2022/05/23 05:04:53;;;;;;;6.47;2.25;;;13.70;99.90;;;;;;5095824;28;20054;-63
2022/05/23 05:07:19;;;;;;;9.25;2.38;;;13.80;99.90;;;;;;5109525;28;20051;-62
2022/05/23 05:09:45;;;;;;;6.22;1.85;;;13.90;99.90;;;;;;5107520;28;20156;-66
2022/05/23 05:12:11;;;;;;;9.95;1.85;;;14.10;99.90;;;;;;5109321;28;20043;-67
2022/05/23 05:14:36;;;;;;;2.95;1.77;;;14.10;99.90;;;;;;5092971;28;20039;-65
2022/05/23 05:17:03;;;;;;;9.52;2.13;;;14.20;98.90;;;;;;5108251;28;20139;-61
2022/05/23 05:19:28;;;;;;;4.80;1.83;;;14.40;99.90;;;;;;5109470;28;20046;-64
2022/05/23 05:21:54;;;;;;;7.97;2.30;;;14.50;98.00;;;;;;5090518;28;20039;-65
2022/05/23 05:24:20;;;;;;;5.20;1.83;;;14.60;98.40;;;;;;5093981;27;20050;-72
2022/05/23 05:26:45;;;;;;;4.80;1.92;;;14.60;97.20;;;;;;5095102;27;20481;-61
2022/05/23 05:29:12;;;;;;;5.95;2.10;;;14.60;95.80;;;;;;5112324;27;20115;-65
2022/05/23 05:31:50;;;;;;;7.90;2.05;;;14.50;96.20;;;;;;5111398;27;20473;-63
2022/05/23 05:34:22;;;;;;;7.20;2.20;;;14.50;97.80;;;;;;5129392;27;20042;-59
2022/05/23 05:36:53;;;;;;;6.53;2.03;;;14.50;96.40;;;;;;5110958;27;20066;-67
2022/05/23 05:39:22;;;;;;;5.43;2.00;;;14.60;96.80;;;;;;5128351;27;20516;-60
2022/05/23 05:42:04;;;;;;;5.65;2.08;;;14.60;96.80;;;;;;5129470;27;20042;-61
2022/05/23 05:44:35;;;;;;;6.22;2.55;;;14.60;97.40;;;;;;5128911;27;20047;-59
2022/05/23 05:47:08;;;;;;;8.48;2.33;;;14.70;96.50;;;;;;5127593;27;20046;-65
2022/05/23 05:49:36;;;;;;;8.30;2.40;;;14.70;97.40;;;;;;5129732;27;20099;-62
2022/05/23 05:52:05;;;;;;;7.85;2.38;;;14.80;95.70;;;;;;5127537;27;20587;-59
2022/05/23 05:54:31;;;;;;;6.00;2.30;;;14.80;97.40;;;;;;5129655;27;20489;-59
2022/05/23 05:57:01;;;;;;;3.63;1.80;;;14.80;95.70;;;;;;5098077;28;20047;-60
2022/05/23 05:59:27;;;;;;;9.00;2.60;;;14.90;96.60;;;;;;5109837;28;20069;-64
2022/05/23 06:01:53;;;;;;;6.82;2.20;;;14.90;97.20;;;;;;5108072;28;20053;-58
2022/05/23 06:04:19;;;;;;;9.73;2.40;;;14.90;97.10;;;;;;5108461;28;20050;-66
2022/05/23 06:12:13;;;;;;;7.90;2.95;;;14.80;96.60;;;;;;5129879;27;20050;-58
2022/05/23 06:14:38;;;;;;;5.05;2.50;;;14.70;97.60;;;;;;5112861;27;20125;-59
2022/05/23 06:17:08;;;;;;;3.95;2.05;;;14.70;99.50;;;;;;5131312;27;20149;-68
2022/05/23 06:19:43;;;;;;;8.60;2.28;;;14.70;99.50;;;;;;5133202;27;20396;-59
2022/05/23 06:22:10;;;;;;;3.90;2.30;;;14.70;99.90;;;;;;5131487;27;20046;-65
2022/05/23 06:24:36;;;;;;;7.63;2.63;;;14.70;99.90;;;;;;5151676;27;20038;-60
2022/05/23 06:27:03;;;;;;;7.32;2.85;;;14.70;99.80;;;;;;5130507;27;20488;-71
2022/05/23 06:29:30;;;;;;;7.78;2.47;;;14.80;99.90;;;;;;5113094;27;20108;-69
2022/05/23 06:31:55;;;;;;;8.52;2.47;;;14.90;99.90;;;;;;5129873;27;20043;-61
2022/05/23 06:34:21;;;;;;;9.50;3.13;;;15.20;99.90;;;;;;5130636;27;20145;-59
2022/05/23 06:36:47;;;;;;;8.05;2.55;;;15.40;98.70;;;;;;5111342;27;20047;-65
2022/05/23 06:39:13;;;;;;;6.53;2.53;;;15.50;98.60;;;;;;5142626;27;20050;-63
2022/05/23 06:41:38;;;;;;;7.57;2.70;;;15.70;96.50;;;;;;5121001;27;20039;-62
2022/05/23 06:44:04;;;;;;;4.30;2.47;;;15.70;96.40;;;;;;5123776;27;20055;-69
2022/05/23 06:46:30;;;;;;;11.25;3.00;;;15.80;95.30;;;;;;5095058;27;20489;-63
2022/05/23 06:48:56;;;;;;;5.88;2.50;;;15.80;94.40;;;;;;5119149;27;20050;-59
2022/05/23 06:51:21;;;;;;;6.68;2.97;;;15.90;95.40;;;;;;5115408;27;20099;-60
2022/05/23 06:53:47;;;;;;;6.15;2.42;;;15.90;95.80;;;;;;5130958;27;20054;-59
2022/05/23 06:56:13;;;;;;;7.82;2.70;;;16.00;96.80;;;;;;5123277;27;20369;-62
2022/05/23 06:58:39;;;;;;;10.38;3.00;;;16.00;95.10;;;;;;5094875;27;20039;-60
2022/05/23 07:01:05;;;;;;;5.82;2.90;;;16.20;95.00;;;;;;5118533;27;20051;-62
2022/05/23 07:03:31;;;;;;;7.03;3.00;;;16.30;92.90;;;;;;5101841;27;20034;-64
2022/05/23 07:14:13;;;;;;;6.15;2.95;;;17.50;91.70;;;;;;5115590;27;20047;-67
2022/05/23 07:16:39;;;;;;;9.43;3.25;;;17.70;86.70;;;;;;5130964;27;20035;-68
2022/05/23 07:19:04;;;;;;;5.88;2.70;;;17.80;87.60;;;;;;5110335;27;20057;-69
2022/05/23 07:21:31;;;;;;;7.60;3.42;;;17.80;82.90;;;;;;5114732;27;20046;-64
2022/05/23 07:23:58;;;;;;;6.95;3.38;;;17.90;87.60;;;;;;5129839;27;20128;-67
2022/05/23 07:26:24;;;;;;;11.63;3.42;;;17.80;81.20;;;;;;5114565;27;20093;-64
2022/05/23 07:28:52;;;;;;;6.82;3.20;;;17.90;84.20;;;;;;5129948;27;20050;-64
2022/05/23 07:31:25;;;;;;;11.60;3.92;;;18.00;82.40;;;;;;5112909;27;20091;-65
2022/05/23 07:33:51;;;;;;;11.35;3.25;;;18.00;81.80;;;;;;5114729;27;20078;-69
2022/05/23 07:36:18;;;;;;;11.45;3.40;;;18.20;81.20;;;;;;5129779;27;20105;-69
2022/05/23 07:38:44;;;;;;;8.10;3.03;;;18.40;79.40;;;;;;5130272;27;20492;-71
2022/05/23 07:41:11;;;;;;;11.88;3.08;;;18.20;75.20;;;;;;5128178;27;20092;-64
2022/05/23 07:43:39;;;;;;;10.52;3.35;;;18.10;73.60;;;;;;5128975;27;20071;-69
2022/05/23 07:46:13;;;;;;;11.38;3.35;;;18.20;76.10;;;;;;5112762;27;20047;-67
2022/05/23 07:48:45;;;;;;;8.88;4.03;;;18.30;79.60;;;;;;5129332;27;20121;-62
2022/05/23 07:51:13;;;;;;;10.13;3.58;;;18.30;81.30;;;;;;5096680;27;20047;-65
2022/05/23 08:01:52;;;;;;;6.47;3.00;;;19.60;71.10;;;;;;5125529;27;20050;-64
2022/05/23 08:04:19;;;;;;;4.13;3.00;;;19.80;68.40;;;;;;5112989;27;20043;-65
2022/05/23 08:06:46;;;;;;;9.00;3.13;;;19.70;68.60;;;;;;5109564;27;20046;-65
2022/05/23 08:09:12;;;;;;;9.70;3.05;;;19.90;66.10;;;;;;5129972;27;20599;-63
2022/05/23 08:11:40;;;;;;;8.57;3.00;;;19.90;64.50;;;;;;5128769;27;20134;-59
2022/05/23 08:14:06;;;;;;;9.60;3.10;;;19.90;68.40;;;;;;5129575;27;20046;-60
2022/05/23 08:16:32;;;;;;;7.05;3.22;;;19.80;67.50;;;;;;5113111;27;20047;-58
2022/05/23 08:18:58;;;;;;;9.20;3.22;;;19.70;67.90;;;;;;5128989;27;20043;-65
2022/05/23 08:21:25;;;;;;;7.75;3.53;;;19.70;70.20;;;;;;5111815;27;20045;-64
2022/05/23 08:23:51;;;;;;;8.38;3.40;;;19.60;69.90;;;;;;5128549;27;20118;-59
2022/05/23 08:26:17;;;;;;;8.43;3.13;;;19.80;74.10;;;;;;5129396;27;20054;-65
2022/05/23 08:28:42;;;;;;;8.25;3.00;;;20.00;77.10;;;;;;5111763;27;20047;-61
2022/05/23 08:31:09;;;;;;;6.68;3.00;;;20.00;69.70;;;;;;5109508;27;20080;-68
2022/05/23 08:33:34;;;;;;;8.93;3.15;;;20.00;67.30;;;;;;5128363;27;20110;-58
2022/05/23 08:36:00;;;;;;;10.82;3.85;;;20.00;66.80;;;;;;5128296;27;20050;-70
2022/05/23 08:38:27;;;;;;;4.63;2.97;;;20.00;67.80;;;;;;5129520;27;20149;-63
2022/05/23 08:41:11;;;;;;;5.85;2.83;;;20.10;70.20;;;;;;5110959;27;20447;-66
2022/05/23 08:43:44;;;;;;;5.05;3.17;;;20.40;77.10;;;;;;5111776;27;20046;-64
2022/05/23 08:46:17;;;;;;;12.23;2.97;;;21.00;66.70;;;;;;5128973;27;20047;-61
2022/05/23 08:48:57;;;;;;;7.68;2.90;;;21.40;70.90;;;;;;5129947;27;20381;-62
2022/05/23 08:51:39;;;;;;;5.90;3.00;;;21.70;63.10;;;;;;5130091;27;20058;-62
2022/05/23 08:54:46;;;;;;;8.23;3.50;;;21.90;61.20;;;;;;5113337;27;20078;-70
2022/05/23 08:57:26;;;;;;;8.57;3.50;;;22.20;63.40;;;;;;5092467;27;20063;-68
2022/05/23 08:59:55;;;;;;;8.32;3.22;;;22.50;61.20;;;;;;5109673;28;20054;-65
2022/05/23 09:02:40;;;;;;;7.50;2.90;;;22.40;58.60;;;;;;5116035;27;20484;-60
2022/05/23 09:05:11;;;;;;;6.70;3.20;;;22.40;58.80;;;;;;5110267;27;20053;-66
2022/05/23 09:07:44;;;;;;;9.70;2.90;;;22.30;58.00;;;;;;5126363;27;20046;-65
2022/05/23 09:10:43;;;;;;;7.95;2.88;;;22.20;57.60;;;;;;5122457;27;20055;-70
2022/05/23 09:13:12;;;;;;;10.60;3.22;;;22.10;51.80;;;;;;5123152;27;20060;-67
2022/05/23 09:15:38;;;;;;;7.05;3.05;;;21.80;55.20;;;;;;5107748;28;20130;-70
2022/05/23 09:18:06;;;;;;;5.50;2.90;;;21.80;54.50;;;;;;5114073;27;20066;-63
2022/05/23 09:20:34;;;;;;;7.20;2.50;;;21.90;63.60;;;;;;5127845;27;20122;-60
2022/05/23 09:23:05;;;;;;;8.27;3.53;;;22.00;55.40;;;;;;5129005;27;20055;-62
2022/05/23 09:25:31;;;;;;;5.63;2.47;;;21.90;56.60;;;;;;5127476;27;20070;-67
2022/05/23 09:28:13;;;;;;;3.97;2.60;;;22.10;61.50;;;;;;5127888;27;20082;-72
2022/05/23 09:30:41;;;;;;;12.20;3.08;;;22.30;60.50;;;;;;5129489;27;20393;-68
2022/05/23 09:33:16;;;;;;;13.57;3.00;;;22.50;56.60;;;;;;5127203;27;20041;-61
2022/05/23 09:35:42;;;;;;;4.22;2.47;;;22.40;56.70;;;;;;5128796;27;20042;-64
2022/05/23 09:38:10;;;;;;;12.93;3.00;;;22.50;59.50;;;;;;5146438;27;20043;-71
2022/05/23 09:40:37;;;;;;;6.60;2.90;;;22.60;56.90;;;;;;5128143;27;20217;-63
2022/05/23 09:49:23;;;;;;;5.25;2.92;;;23.10;51.20;;;;;;5066889;28;20427;-69
2022/05/23 09:52:08;;;;;;;7.25;2.65;;;23.10;51.40;;;;;;5109115;27;20121;-71
2022/05/23 09:54:47;;;;;;;4.47;2.47;;;23.10;48.20;;;;;;5131179;27;20783;-66
2022/05/23 09:57:21;;;;;;;8.30;2.72;;;23.10;48.20;;;;;;5133015;27;20062;-69
2022/05/23 09:59:55;;;;;;;6.35;2.80;;;23.20;49.40;;;;;;5115636;27;20215;-62
2022/05/23 10:02:31;;;;;;;8.88;2.85;;;23.40;45.90;;;;;;5118282;27;20123;-65
2022/05/23 10:04:57;;;;;;;7.00;2.40;;;23.50;47.40;;;;;;5096059;27;20058;-64
2022/05/23 10:07:33;;;;;;;6.03;2.33;;;23.60;42.90;;;;;;5094040;27;20035;-62
2022/05/23 10:10:30;;;;;;;6.70;2.40;;;23.60;45.50;;;;;;5113071;27;20051;-64
2022/05/23 10:13:22;;;;;;;4.97;2.60;;;23.60;41.80;;;;;;5118429;27;20042;-58
2022/05/23 10:15:54;;;;;;;5.70;2.33;;;23.50;45.00;;;;;;5130660;27;20152;-59
2022/05/23 10:18:34;;;;;;;8.15;2.38;;;23.60;45.40;;;;;;5115236;27;20054;-67
2022/05/23 10:21:01;;;;;;;6.25;2.40;;;23.70;48.30;;;;;;5131656;27;20039;-59
2022/05/23 10:23:30;;;;;;;9.68;2.75;;;23.80;44.00;;;;;;5115438;27;20035;-63
2022/05/23 10:26:13;;;;;;;3.60;2.20;;;24.00;49.40;;;;;;5112013;27;20572;-68
2022/05/23 10:28:48;;;;;;;9.70;2.58;;;24.20;43.60;;;;;;5110616;27;20051;-62
2022/05/23 10:31:26;;;;;;;4.93;2.38;;;24.10;39.00;;;;;;5112074;27;20068;-70
2022/05/23 10:33:59;;;;;;;4.43;2.00;;;24.10;43.10;;;;;;5110670;27;20104;-70
2022/05/23 10:36:30;;;;;;;6.57;2.50;;;24.00;40.30;;;;;;5094771;27;20492;-65
2022/05/23 10:45:06;;;;;;;8.50;2.63;;;23.90;42.90;;;;;;5132616;27;20431;-66
2022/05/23 10:47:44;;;;;;;4.47;2.40;;;24.10;35.90;;;;;;5131512;27;20077;-60
2022/05/23 10:50:16;;;;;;;16.27;1.92;;;24.10;37.30;;;;;;5112595;27;20130;-71
2022/05/23 10:52:55;;;;;;;7.45;2.92;;;24.10;34.60;;;;;;5129143;27;20051;-66
2022/05/23 10:55:35;;;;;;;6.22;2.17;;;24.10;35.10;;;;;;5129622;27;20242;-68
2022/05/23 10:58:40;;;;;;;6.28;2.03;;;24.30;35.10;;;;;;5131849;27;20081;-62
2022/05/23 11:01:24;;;;;;;5.78;1.83;;;24.40;37.10;;;;;;5111975;27;20042;-65
2022/05/23 11:04:16;;;;;;;7.20;1.90;;;24.50;32.10;;;;;;5110362;27;20082;-62
2022/05/23 11:06:57;;;;;;;7.13;2.30;;;24.40;28.80;;;;;;5111352;27;20043;-68
2022/05/23 11:09:31;;;;;;;6.82;2.15;;;24.30;33.10;;;;;;5109485;27;20043;-66
2022/05/23 11:12:06;;;;;;;8.98;1.85;;;24.10;33.00;;;;;;5129395;27;20057;-71
2022/05/23 11:14:43;;;;;;;1.60;1.45;;;23.70;26.80;;;;;;5130929;27;20041;-68
2022/05/23 11:17:27;;;;;;;7.93;1.83;;;23.60;31.30;;;;;;5113021;27;20548;-72
2022/05/23 11:20:08;;;;;;;6.30;1.88;;;23.50;37.40;;;;;;5130329;27;20047;-65
2022/05/23 11:22:38;;;;;;;3.15;1.23;;;23.40;30.30;;;;;;5129263;27;20053;-62
2022/05/23 11:25:18;;;;;;;4.72;1.60;;;23.40;29.20;;;;;;5129215;27;20071;-73
2022/05/23 11:33:52;;;;;;;3.30;1.35;;;23.70;29.40;;;;;;5127558;27;20042;-69
2022/05/23 11:36:34;;;;;;;4.95;1.67;;;23.70;29.90;;;;;;5108831;27;20079;-73
2022/05/23 11:39:00;;;;;;;6.85;1.60;;;23.80;29.00;;;;;;5146341;27;20087;-60
2022/05/23 11:41:32;;;;;;;4.43;1.38;;;24.10;28.90;;;;;;5110731;27;20057;-71
2022/05/23 11:44:01;;;;;;;3.50;1.50;;;24.30;26.20;;;;;;5130707;27;20073;-72
2022/05/23 11:46:48;;;;;;;5.13;1.77;;;24.50;26.90;;;;;;5128162;27;20293;-65
2022/05/23 11:49:41;;;;;;;3.80;1.48;;;24.40;26.90;;;;;;5130362;27;20054;-69
2022/05/23 11:52:26;;;;;;;6.38;1.98;;;24.50;26.90;;;;;;5100124;27;20450;-65
2022/05/23 11:54:52;;;;;;;8.23;1.70;;;24.40;24.90;;;;;;5109485;27;20039;-64
2022/05/23 11:57:40;;;;;;;4.25;1.85;;;24.30;22.90;;;;;;5112957;27;20039;-66
2022/05/23 12:00:33;;;;;;;1.50;1.25;;;24.30;25.10;;;;;;5111728;27;20046;-73
2022/05/23 12:03:14;;;;;;;6.35;1.70;;;24.40;22.40;;;;;;5125689;27;20057;-67
2022/05/23 12:05:41;;;;;;;4.70;1.60;;;24.40;25.30;;;;;;5129205;27;20121;-72
2022/05/23 12:08:31;;;;;;;2.40;1.48;;;24.50;22.20;;;;;;5127505;27;20103;-61
2022/05/23 12:10:58;;;;;;;5.25;2.08;;;24.50;24.20;;;;;;5129207;27;20122;-69
2022/05/23 12:13:30;;;;;;;6.47;1.48;;;24.50;23.70;;;;;;5128144;27;20381;-63
2022/05/23 12:15:58;;;;;;;4.45;1.98;;;24.50;22.60;;;;;;5112141;27;20522;-69
2022/05/23 12:18:24;;;;;;;3.00;1.33;;;24.40;22.10;;;;;;5129321;27;20038;-67
2022/05/23 12:20:54;;;;;;;2.67;1.02;;;24.40;25.10;;;;;;5146685;27;20425;-65
2022/05/23 12:23:40;;;;;;;5.65;1.35;;;24.30;18.80;;;;;;5129749;27;20058;-63
2022/05/23 12:26:12;;;;;;;7.05;1.48;;;24.30;21.90;;;;;;5128540;27;20133;-62
2022/05/23 12:28:57;;;;;;;8.57;1.67;;;24.30;22.40;;;;;;5112893;27;20543;-63
2022/05/23 12:31:28;;;;;;;4.20;1.52;;;24.30;21.20;;;;;;5125934;27;20693;-61
2022/05/23 12:34:03;;;;;;;3.10;1.30;;;24.50;23.90;;;;;;5111147;27;20053;-69
2022/05/23 12:36:33;;;;;;;3.60;1.05;;;24.70;26.00;;;;;;5109455;27;20047;-68
2022/05/23 12:39:38;;;;;;;4.38;1.30;;;24.80;22.00;;;;;;5092029;27;20389;-64
2022/05/23 12:42:24;;;;;;;4.07;1.08;;;24.80;18.70;;;;;;5007239;28;20049;-66
2022/05/23 12:45:18;;;;;;;8.07;1.30;;;24.90;21.50;;;;;;5085923;27;20142;-63
2022/05/23 12:48:15;;;;;;;6.90;1.17;;;24.80;18.60;;;;;;5108580;27;20400;-60
2022/05/23 12:50:49;;;;;;;3.78;1.52;;;24.60;19.60;;;;;;5125057;27;20038;-64
2022/05/23 12:53:43;;;;;;;5.75;1.40;;;24.50;20.00;;;;;;5126617;27;20051;-67
2022/05/23 12:56:18;;;;;;;3.65;1.75;;;24.40;19.00;;;;;;5123186;27;20055;-71
2022/05/23 12:59:03;;;;;;;2.60;1.10;;;24.30;20.60;;;;;;5126257;27;20082;-67
2022/05/23 13:01:33;;;;;;;3.15;1.27;;;24.40;23.20;;;;;;5124999;27;20047;-64
2022/05/23 13:04:15;;;;;;;4.53;1.60;;;24.40;18.50;;;;;;5118163;27;20047;-60
2022/05/23 13:07:00;;;;;;;6.15;1.60;;;24.40;19.30;;;;;;5114272;28;20561;-72
2022/05/23 13:09:39;;;;;;;5.20;1.55;;;24.30;19.80;;;;;;5124004;28;20050;-63
2022/05/23 13:12:13;;;;;;;4.53;1.35;;;24.20;21.40;;;;;;5124473;28;20186;-73
2022/05/23 13:14:48;;;;;;;2.95;1.40;;;24.20;20.50;;;;;;5125445;28;20254;-65
2022/05/23 13:17:36;;;;;;;3.88;1.50;;;24.20;20.00;;;;;;5107870;28;20051;-63
2022/05/23 13:22:47;;;;;;;4.97;1.40;;;24.20;22.50;;;;;;5124086;27;20047;-61
2022/05/23 13:25:12;;;;;;;2.83;1.23;;;24.20;20.60;;;;;;5111919;27;20046;-60
2022/05/23 13:27:49;;;;;;;3.33;1.52;;;24.20;18.70;;;;;;5129689;27;20043;-68
2022/05/23 13:30:20;;;;;;;5.32;1.70;;;24.20;20.80;;;;;;5128836;27;20047;-61
2022/05/23 13:33:00;;;;;;;2.63;1.50;;;24.00;22.00;;;;;;5111294;27;20051;-67
2022/05/23 13:35:26;;;;;;;2.40;1.35;;;23.90;21.30;;;;;;5127690;27;20047;-60
2022/05/23 13:37:52;;;;;;;3.50;1.60;;;23.90;23.60;;;;;;5129105;27;20051;-61
2022/05/23 13:40:29;;;;;;;4.53;1.52;;;23.80;21.60;;;;;;5096880;27;20050;-65
2022/05/23 13:43:15;;;;;;;1.95;1.30;;;23.80;21.30;;;;;;5128448;27;20052;-65
2022/05/23 13:45:42;;;;;;;3.00;1.38;;;23.80;23.80;;;;;;5129423;27;20047;-65
2022/05/23 13:48:16;;;;;;;2.50;1.60;;;23.80;25.00;;;;;;5130404;27;20046;-60
2022/05/23 13:50:55;;;;;;;7.60;1.60;;;23.90;23.30;;;;;;5092032;28;20051;-65
2022/05/23 13:53:32;;;;;;;5.38;1.75;;;24.10;25.30;;;;;;5109612;28;20088;-70
2022/05/23 13:56:01;;;;;;;6.82;1.52;;;24.30;26.80;;;;;;5107729;28;20127;-67
2022/05/23 13:58:31;;;;;;;2.13;1.33;;;24.30;24.10;;;;;;5108968;28;20078;-66
2022/05/23 14:01:06;;;;;;;3.38;1.52;;;24.40;25.10;;;;;;5125425;27;20055;-67
2022/05/23 14:03:44;;;;;;;13.07;1.63;;;24.30;22.20;;;;;;5124770;27;20043;-62
2022/05/23 14:06:18;;;;;;;8.43;2.00;;;24.10;21.80;;;;;;5109276;28;20062;-63
2022/05/23 14:08:52;;;;;;;5.65;1.60;;;23.90;22.90;;;;;;5107600;28;20054;-67